Berlin, New Hampshire
Current Conditions -  °F | °C
As of 11:52 PM on Tuesday 25 Nov 2014 (Local Time) from KBML Reporting Station
Overcast Overcast  
Wind Chill: 36°   Ceiling: 5000
Heat Index: 41°   Visibility: 10mi
Dew Point: 24°   Wind: 8mph
Humidity: 51%   Direction: 210°SSW
Pressure: 30.03"   Gusts: NA
Location:  44.47°N, 71.18°W
Report Text: KBML 260452Z AUTO 21007KT 10SM BKN050 OVC055 05/M04 A3003 RMK AO2 SLP175 T00501044 401501017
Loading
Personal Weather Stations






























Interactive Weather Map New forecast layout! Learn more

10-Day Weather Forecast

Advertisements
Track Severe Weather on mobile